createdAt,value
2023-02-25T00:00:19.526Z,2.83
2023-02-25T00:05:24.145Z,2.81
2023-02-25T00:10:27.056Z,2.69
2023-02-25T00:15:29.966Z,2.64
2023-02-25T00:20:34.259Z,2.74
2023-02-25T00:25:37.547Z,2.70
2023-02-25T00:30:42.488Z,2.69
2023-02-25T00:35:50.002Z,2.75
2023-02-25T00:40:52.956Z,2.69
2023-02-25T00:45:55.857Z,2.82
2023-02-25T00:51:06.188Z,2.76
2023-02-25T00:56:11.397Z,2.75
2023-02-25T01:01:19.983Z,2.94
2023-02-25T01:06:25.217Z,2.86
2023-02-25T01:11:30.650Z,2.89
2023-02-25T01:16:35.086Z,2.95
2023-02-25T01:21:43.820Z,2.88
2023-02-25T01:26:48.092Z,2.95
2023-02-25T01:31:53.662Z,2.99
2023-02-25T01:36:58.461Z,3.03
2023-02-25T01:42:05.475Z,3.10
2023-02-25T01:47:10.157Z,3.02
2023-02-25T01:52:19.770Z,2.95
2023-02-25T01:57:23.742Z,2.94
2023-02-25T02:02:29.780Z,2.96
2023-02-25T02:07:34.215Z,3.02
2023-02-25T02:12:40.031Z,2.86
2023-02-25T02:17:47.548Z,2.92
2023-02-25T02:23:00.847Z,2.89
2023-02-25T02:28:37.271Z,2.89
2023-02-25T02:33:49.532Z,2.91
2023-02-25T02:38:59.347Z,2.92
2023-02-25T02:44:10.092Z,2.93
2023-02-25T02:49:22.002Z,2.89
2023-02-25T02:54:28.293Z,2.70
2023-02-25T02:59:34.579Z,2.73
2023-02-25T03:04:42.959Z,2.61
2023-02-25T03:09:50.238Z,2.60
2023-02-25T03:14:53.645Z,2.66
2023-02-25T03:20:04.225Z,2.63
2023-02-25T03:25:14.048Z,2.66
2023-02-25T03:30:25.524Z,2.63
2023-02-25T03:35:31.769Z,2.56
2023-02-25T03:40:35.849Z,2.63
2023-02-25T03:45:40.863Z,2.57
2023-02-25T03:50:49.656Z,2.56
2023-02-25T03:55:53.842Z,2.57
2023-02-25T04:01:02.528Z,2.42
2023-02-25T04:06:10.379Z,2.43
2023-02-25T04:11:13.774Z,2.42
2023-02-25T04:16:19.182Z,2.46
2023-02-25T04:21:30.388Z,2.56
2023-02-25T04:26:33.701Z,2.56
2023-02-25T04:31:36.730Z,2.34
2023-02-25T04:36:41.568Z,2.20
2023-02-25T04:41:45.135Z,2.07
2023-02-25T04:46:51.832Z,2.05
2023-02-25T04:51:56.251Z,1.72
2023-02-25T04:56:59.184Z,1.72
2023-02-25T05:02:02.165Z,1.47
2023-02-25T05:07:07.850Z,1.44
2023-02-25T05:12:10.792Z,1.43
2023-02-25T05:17:15.726Z,1.20
2023-02-25T05:22:20.862Z,1.33
2023-02-25T05:27:23.741Z,1.21
2023-02-25T05:32:26.759Z,1.31
2023-02-25T05:37:32.814Z,1.38
2023-02-25T05:42:35.757Z,1.09
2023-02-25T05:47:38.859Z,1.25
2023-02-25T05:52:43.215Z,1.34
2023-02-25T05:57:46.125Z,1.37
2023-02-25T06:02:49.214Z,1.30
2023-02-25T06:07:53.481Z,1.26
2023-02-25T06:12:56.454Z,1.42
2023-02-25T06:17:59.398Z,1.44
2023-02-25T06:23:03.956Z,1.39
2023-02-25T06:28:06.969Z,1.37
2023-02-25T06:33:09.982Z,1.47
2023-02-25T06:38:14.379Z,1.30
2023-02-25T06:43:17.553Z,1.37
2023-02-25T06:48:20.474Z,1.51
2023-02-25T06:53:24.712Z,1.56
2023-02-25T06:58:27.623Z,1.53
2023-02-25T07:03:30.493Z,1.54
2023-02-25T07:08:34.784Z,1.25
2023-02-25T07:13:37.875Z,1.50
2023-02-25T07:18:40.880Z,1.49
2023-02-25T07:23:46.540Z,1.39
2023-02-25T07:28:49.497Z,1.52
2023-02-25T07:33:53.108Z,1.63
2023-02-25T07:38:57.651Z,1.59
2023-02-25T07:44:00.510Z,1.48
2023-02-25T07:49:03.886Z,1.57
2023-02-25T07:54:08.252Z,1.61
2023-02-25T07:59:11.408Z,1.55
2023-02-25T08:04:14.375Z,1.45
2023-02-25T08:09:18.830Z,1.56
2023-02-25T08:14:22.704Z,1.61
2023-02-25T08:19:25.748Z,1.81
2023-02-25T08:24:30.026Z,2.04
2023-02-25T08:29:32.947Z,2.01
2023-02-25T08:34:36.155Z,2.04
2023-02-25T08:39:40.583Z,1.92
2023-02-25T08:44:43.763Z,1.86
2023-02-25T08:49:47.549Z,1.84
2023-02-25T08:54:51.989Z,1.50
2023-02-25T08:59:55.246Z,1.29
2023-02-25T09:04:58.188Z,0.78
2023-02-25T09:10:04.110Z,0.78
2023-02-25T09:15:08.686Z,0.59
2023-02-25T09:20:12.434Z,0.81
2023-02-25T09:25:16.795Z,1.40
2023-02-25T09:30:19.782Z,1.39
2023-02-25T09:35:22.916Z,2.05
2023-02-25T09:40:27.834Z,1.66
2023-02-25T09:45:34.224Z,1.43
2023-02-25T09:50:42.998Z,1.53
2023-02-25T09:55:50.089Z,2.14
2023-02-25T10:01:02.840Z,2.16
2023-02-25T10:06:14.276Z,1.27
2023-02-25T10:11:27.551Z,1.65
2023-02-25T10:16:42.294Z,1.51
2023-02-25T10:22:09.949Z,1.46
2023-02-25T10:27:21.913Z,1.92
2023-02-25T10:32:27.386Z,1.69
2023-02-25T10:37:35.824Z,1.72
2023-02-25T10:42:40.134Z,1.58
2023-02-25T10:47:46.340Z,1.63
2023-02-25T10:52:54.970Z,1.71
2023-02-25T10:58:00.797Z,1.21
2023-02-25T11:03:05.804Z,1.43
2023-02-25T11:08:27.663Z,1.71
2023-02-25T11:13:36.331Z,1.72
2023-02-25T11:18:40.663Z,1.76
2023-02-25T11:23:48.025Z,1.91
2023-02-25T11:28:52.564Z,2.02
2023-02-25T11:33:59.602Z,1.73
2023-02-25T11:39:18.077Z,1.74
2023-02-25T11:44:27.969Z,1.79
2023-02-25T11:50:05.024Z,1.94
2023-02-25T11:55:19.042Z,1.75
2023-02-25T12:00:30.605Z,1.93
2023-02-25T12:05:48.570Z,2.18
2023-02-25T12:11:24.660Z,2.45
2023-02-25T12:17:03.034Z,2.31
2023-02-25T12:22:37.672Z,1.97
2023-02-25T12:27:58.929Z,2.23
2023-02-25T12:33:15.960Z,2.43
2023-02-25T12:39:01.364Z,2.43
2023-02-25T12:44:25.058Z,2.27
2023-02-25T12:49:55.887Z,2.31
2023-02-25T12:55:21.143Z,2.44
2023-02-25T13:00:44.929Z,2.68
2023-02-25T13:06:32.999Z,2.33
2023-02-25T13:12:10.132Z,2.45
2023-02-25T13:17:26.866Z,2.49
2023-02-25T13:22:44.786Z,2.34
2023-02-25T13:28:13.177Z,2.25
2023-02-25T13:33:29.641Z,2.55
2023-02-25T13:38:57.973Z,2.48
2023-02-25T13:44:20.360Z,2.12
2023-02-25T13:49:42.058Z,1.82
2023-02-25T13:55:09.990Z,1.94
2023-02-25T14:00:40.382Z,1.83
2023-02-25T14:06:00.478Z,1.93
2023-02-25T14:11:29.795Z,2.06
2023-02-25T14:16:41.438Z,1.86
2023-02-25T14:22:21.244Z,1.44
2023-02-25T14:27:37.053Z,1.49
2023-02-25T14:32:55.380Z,1.26
2023-02-25T14:38:09.101Z,1.30
2023-02-25T14:43:32.312Z,1.13
2023-02-25T14:48:42.580Z,0.11
2023-02-25T14:54:03.363Z,0.33
2023-02-25T14:59:36.885Z,0.13
2023-02-25T15:05:15.460Z,0.30
2023-02-25T15:10:34.565Z,0.15
2023-02-25T15:15:58.472Z,0.19
2023-02-25T15:21:35.888Z,0.11
2023-02-25T15:26:45.438Z,0.50
2023-02-25T15:32:16.686Z,0.63
2023-02-25T15:38:01.091Z,0.65
2023-02-25T15:43:42.437Z,0.51
2023-02-25T15:49:02.807Z,0.36
2023-02-25T15:54:06.409Z,0.34
2023-02-25T15:59:09.404Z,0.35
2023-02-25T16:04:46.084Z,0.23
2023-02-25T16:09:56.285Z,-0.39
2023-02-25T16:15:00.676Z,-0.13
2023-02-25T16:20:14.566Z,-0.36
2023-02-25T16:25:23.497Z,-0.43
2023-02-25T16:30:34.510Z,-0.37
2023-02-25T16:35:48.380Z,-0.31
2023-02-25T16:40:52.232Z,-0.13
2023-02-25T16:45:58.510Z,-0.22
2023-02-25T16:51:10.395Z,-0.33
2023-02-25T16:56:19.926Z,-0.31
2023-02-25T17:01:23.942Z,-0.43
2023-02-25T17:06:28.353Z,-0.47
2023-02-25T17:11:31.758Z,-0.33
2023-02-25T17:16:41.786Z,-0.55
2023-02-25T17:21:51.912Z,-0.48
2023-02-25T17:26:55.423Z,-0.53
2023-02-25T17:31:58.441Z,-0.64
2023-02-25T17:37:08.386Z,-0.73
2023-02-25T17:42:32.174Z,-0.83
2023-02-25T17:47:38.060Z,-0.82
2023-02-25T17:52:49.164Z,-0.86
2023-02-25T17:57:54.847Z,-0.80
2023-02-25T18:03:17.471Z,-0.76
2023-02-25T18:08:23.945Z,-0.74
2023-02-25T18:13:35.323Z,-0.63
2023-02-25T18:18:38.321Z,-0.71
2023-02-25T18:23:42.747Z,-0.31
2023-02-25T18:28:47.425Z,-0.07
2023-02-25T18:33:50.657Z,-0.65
2023-02-25T18:38:58.298Z,-0.64
2023-02-25T18:44:02.417Z,-0.49
2023-02-25T18:49:05.544Z,-0.61
2023-02-25T18:54:16.144Z,-0.53
2023-02-25T18:59:19.707Z,-0.49
2023-02-25T19:04:22.708Z,-0.48
2023-02-25T19:09:28.481Z,-0.74
2023-02-25T19:14:32.689Z,-0.84
2023-02-25T19:19:36.177Z,-0.71
2023-02-25T19:24:40.507Z,-0.63
2023-02-25T19:29:43.462Z,-0.80
2023-02-25T19:34:46.454Z,-0.83
2023-02-25T19:39:51.104Z,-0.93
2023-02-25T19:44:54.462Z,-1.02
2023-02-25T19:49:57.494Z,-1.02
2023-02-25T19:55:02.343Z,-0.82
2023-02-25T20:00:08.706Z,-0.95
2023-02-25T20:05:32.450Z,-0.99
2023-02-25T20:10:37.525Z,-1.04
2023-02-25T20:15:41.068Z,-1.05
2023-02-25T20:20:44.055Z,-1.19
2023-02-25T20:25:48.568Z,-1.10
2023-02-25T20:30:51.481Z,-1.25
2023-02-25T20:35:54.640Z,-1.29
2023-02-25T20:40:59.168Z,-1.36
2023-02-25T20:46:02.344Z,-1.39
2023-02-25T20:51:05.824Z,-1.39
2023-02-25T20:56:12.980Z,-1.47
2023-02-25T21:01:15.963Z,-1.29
2023-02-25T21:06:19.728Z,-1.30
2023-02-25T21:11:25.618Z,-1.32
2023-02-25T21:16:28.775Z,-1.37
2023-02-25T21:21:36.948Z,-1.19
2023-02-25T21:26:41.244Z,-1.24
2023-02-25T21:31:45.616Z,-1.18
2023-02-25T21:36:48.666Z,-1.22
2023-02-25T21:41:53.001Z,-1.43
2023-02-25T21:46:58.059Z,-1.24
2023-02-25T21:52:01.511Z,-1.50
2023-02-25T21:57:06.546Z,-1.32
2023-02-25T22:02:11.309Z,-1.46
2023-02-25T22:07:14.442Z,-1.16
2023-02-25T22:12:18.688Z,-1.16
2023-02-25T22:17:21.540Z,-1.32
2023-02-25T22:22:24.443Z,-1.42
2023-02-25T22:27:28.734Z,-1.36
2023-02-25T22:32:31.726Z,-1.29
2023-02-25T22:37:35.254Z,-1.56
2023-02-25T22:42:39.579Z,-1.51
2023-02-25T22:47:43.166Z,-1.28
2023-02-25T22:52:46.092Z,-1.22
2023-02-25T22:57:50.328Z,-1.25
2023-02-25T23:02:53.287Z,-1.01
2023-02-25T23:07:56.251Z,-1.51
2023-02-25T23:13:02.311Z,-1.62
2023-02-25T23:18:08.598Z,-1.55
2023-02-25T23:23:17.383Z,-1.37
2023-02-25T23:28:21.695Z,-1.46
2023-02-25T23:33:24.624Z,-1.41
2023-02-25T23:38:28.409Z,-1.30
2023-02-25T23:43:32.912Z,-1.45
2023-02-25T23:48:35.767Z,-1.51
2023-02-25T23:53:38.667Z,-1.54
2023-02-25T23:58:42.946Z,-1.47
